createdAt,value
2022-09-27T00:01:11.602Z,9.00
2022-09-27T00:03:42.318Z,9.00
2022-09-27T00:06:14.325Z,9.00
2022-09-27T00:08:43.186Z,9.00
2022-09-27T00:11:21.306Z,9.00
2022-09-27T00:13:49.970Z,9.10
2022-09-27T00:16:18.943Z,9.00
2022-09-27T00:18:50.107Z,9.00
2022-09-27T00:21:19.910Z,9.00
2022-09-27T00:23:49.440Z,9.10
2022-09-27T00:26:18.620Z,9.00
2022-09-27T00:28:47.449Z,9.10
2022-09-27T00:31:22.467Z,9.10
2022-09-27T00:33:55.382Z,9.10
2022-09-27T00:36:25.991Z,9.10
2022-09-27T00:38:55.332Z,9.10
2022-09-27T00:41:25.829Z,9.20
2022-09-27T00:43:58.023Z,9.10
2022-09-27T00:46:31.712Z,9.10
2022-09-27T00:49:14.837Z,9.10
2022-09-27T00:51:47.143Z,9.20
2022-09-27T00:54:18.961Z,9.20
2022-09-27T00:56:50.037Z,9.10
2022-09-27T00:59:26.090Z,9.10
2022-09-27T01:01:54.981Z,9.20
2022-09-27T01:04:30.579Z,9.10
2022-09-27T01:07:00.103Z,9.20
2022-09-27T01:09:29.978Z,9.20
2022-09-27T01:12:08.621Z,9.20
2022-09-27T01:14:54.352Z,9.20
2022-09-27T01:17:35.299Z,9.20
2022-09-27T01:20:33.747Z,9.10
2022-09-27T01:23:22.185Z,9.20
2022-09-27T01:26:07.649Z,9.10
2022-09-27T01:28:52.673Z,9.10
2022-09-27T01:31:27.713Z,9.20
2022-09-27T01:34:05.956Z,9.20
2022-09-27T01:36:44.697Z,9.20
2022-09-27T01:39:29.863Z,9.10
2022-09-27T01:42:04.521Z,9.10
2022-09-27T01:44:38.223Z,9.10
2022-09-27T01:47:13.902Z,9.10
2022-09-27T01:49:50.282Z,9.10
2022-09-27T01:52:23.797Z,9.10
2022-09-27T01:54:58.174Z,9.10
2022-09-27T01:57:31.516Z,9.10
2022-09-27T02:00:04.504Z,9.10
2022-09-27T02:02:40.528Z,9.10
2022-09-27T02:05:17.487Z,9.10
2022-09-27T02:07:51.287Z,9.10
2022-09-27T02:10:24.155Z,9.10
2022-09-27T02:13:07.105Z,9.00
2022-09-27T02:15:46.827Z,9.10
2022-09-27T02:18:20.847Z,9.10
2022-09-27T02:20:54.379Z,9.10
2022-09-27T02:23:31.396Z,9.10
2022-09-27T02:26:01.372Z,9.10
2022-09-27T02:28:35.202Z,9.10
2022-09-27T02:31:03.532Z,9.10
2022-09-27T02:33:39.157Z,9.10
2022-09-27T02:36:09.151Z,9.10
2022-09-27T02:38:38.365Z,9.00
2022-09-27T02:41:16.583Z,9.10
2022-09-27T02:43:46.729Z,9.00
2022-09-27T02:46:28.774Z,9.10
2022-09-27T02:49:10.821Z,9.00
2022-09-27T02:51:54.737Z,9.00
2022-09-27T02:54:32.329Z,9.10
2022-09-27T02:57:12.934Z,9.10
2022-09-27T02:59:52.256Z,9.10
2022-09-27T03:02:29.543Z,9.10
2022-09-27T03:05:03.367Z,9.10
2022-09-27T03:07:32.765Z,9.10
2022-09-27T03:10:02.043Z,9.10
2022-09-27T03:12:30.820Z,9.10
2022-09-27T03:15:01.480Z,9.10
2022-09-27T03:17:30.313Z,9.10
2022-09-27T03:20:00.112Z,9.10
2022-09-27T03:22:28.375Z,9.00
2022-09-27T03:24:57.627Z,9.00
2022-09-27T03:27:26.248Z,9.10
2022-09-27T03:29:54.542Z,9.10
2022-09-27T03:32:22.876Z,9.10
2022-09-27T03:34:59.254Z,9.00
2022-09-27T03:37:30.836Z,9.00
2022-09-27T03:39:59.284Z,9.00
2022-09-27T03:42:27.608Z,9.00
2022-09-27T03:44:55.954Z,9.00
2022-09-27T03:47:24.836Z,9.00
2022-09-27T03:49:53.163Z,9.10
2022-09-27T03:52:23.568Z,9.10
2022-09-27T03:54:54.786Z,9.00
2022-09-27T03:57:24.651Z,9.00
2022-09-27T03:59:53.343Z,9.00
2022-09-27T04:02:21.733Z,9.00
2022-09-27T04:04:50.609Z,9.00
2022-09-27T04:07:19.837Z,9.00
2022-09-27T04:09:48.172Z,9.00
2022-09-27T04:12:17.835Z,9.00
2022-09-27T04:14:46.181Z,9.00
2022-09-27T04:17:17.538Z,9.00
2022-09-27T04:19:46.089Z,8.90
2022-09-27T04:22:15.539Z,9.00
2022-09-27T04:24:43.724Z,8.90
2022-09-27T04:27:11.992Z,8.90
2022-09-27T04:29:45.616Z,9.00
2022-09-27T04:32:14.273Z,9.00
2022-09-27T04:35:00.239Z,9.00
2022-09-27T04:37:28.982Z,9.10
2022-09-27T04:39:57.260Z,9.10
2022-09-27T04:42:28.601Z,9.10
2022-09-27T04:45:02.175Z,9.10
2022-09-27T04:47:30.862Z,9.10
2022-09-27T04:49:59.836Z,9.10
2022-09-27T04:52:28.527Z,9.10
2022-09-27T04:54:57.282Z,9.10
2022-09-27T04:57:25.982Z,9.10
2022-09-27T04:59:54.913Z,9.00
2022-09-27T05:02:24.729Z,9.00
2022-09-27T05:04:53.386Z,9.00
2022-09-27T05:07:21.654Z,9.00
2022-09-27T05:09:50.040Z,9.00
2022-09-27T05:12:18.711Z,9.00
2022-09-27T05:14:47.465Z,9.00
2022-09-27T05:17:16.352Z,9.00
2022-09-27T05:19:46.434Z,9.00
2022-09-27T05:22:14.991Z,8.90
2022-09-27T05:24:43.896Z,9.00
2022-09-27T05:27:18.555Z,9.10
2022-09-27T05:29:47.687Z,9.00
2022-09-27T05:32:16.825Z,9.00
2022-09-27T05:34:46.531Z,9.00
2022-09-27T05:37:14.804Z,9.00
2022-09-27T05:39:43.498Z,9.00
2022-09-27T05:42:15.422Z,9.00
2022-09-27T05:44:48.674Z,9.00
2022-09-27T05:47:17.601Z,9.00
2022-09-27T05:49:47.374Z,9.10
2022-09-27T05:52:16.825Z,9.00
2022-09-27T05:54:46.415Z,9.00
2022-09-27T05:57:15.138Z,9.00
2022-09-27T05:59:43.551Z,9.00
2022-09-27T06:02:12.782Z,9.10
2022-09-27T06:04:41.620Z,9.10
2022-09-27T06:07:12.026Z,9.10
2022-09-27T06:09:40.443Z,9.10
2022-09-27T06:12:11.948Z,9.10
2022-09-27T06:14:40.716Z,9.10
2022-09-27T06:17:09.948Z,9.10
2022-09-27T06:19:38.450Z,9.10
2022-09-27T06:22:06.957Z,9.10
2022-09-27T06:24:38.541Z,9.10
2022-09-27T06:27:08.102Z,9.10
2022-09-27T06:29:39.501Z,9.10
2022-09-27T06:32:08.105Z,9.10
2022-09-27T06:34:36.908Z,9.10
2022-09-27T06:37:05.231Z,9.10
2022-09-27T06:39:34.984Z,9.10
2022-09-27T06:42:04.805Z,9.10
2022-09-27T06:44:33.581Z,9.10
2022-09-27T06:47:01.837Z,9.00
2022-09-27T06:49:31.593Z,9.00
2022-09-27T06:52:00.438Z,9.00
2022-09-27T06:54:31.733Z,9.00
2022-09-27T06:57:02.500Z,9.00
2022-09-27T06:59:49.920Z,9.10
2022-09-27T07:02:18.754Z,9.10
2022-09-27T07:04:47.041Z,9.00
2022-09-27T07:07:15.489Z,9.00
2022-09-27T07:09:44.576Z,9.10
2022-09-27T07:12:14.210Z,9.00
2022-09-27T07:14:46.084Z,9.10
2022-09-27T07:17:14.903Z,9.10
2022-09-27T07:19:43.158Z,9.20
2022-09-27T07:22:11.436Z,9.30
2022-09-27T07:24:47.551Z,9.40
2022-09-27T07:27:16.703Z,9.40
2022-09-27T07:29:56.934Z,9.50
2022-09-27T07:32:25.674Z,9.40
2022-09-27T07:34:54.117Z,9.40
2022-09-27T07:37:23.067Z,9.30
2022-09-27T07:39:51.781Z,9.30
2022-09-27T07:42:20.644Z,9.30
2022-09-27T07:44:50.789Z,9.30
2022-09-27T07:47:20.210Z,9.30
2022-09-27T07:49:48.479Z,9.30
2022-09-27T07:52:16.953Z,9.40
2022-09-27T07:54:45.250Z,9.30
2022-09-27T07:57:14.101Z,9.30
2022-09-27T07:59:42.644Z,9.30
2022-09-27T08:02:15.884Z,9.30
2022-09-27T08:04:47.104Z,9.50
2022-09-27T08:07:16.084Z,9.70
2022-09-27T08:09:45.526Z,10.00
2022-09-27T08:12:13.856Z,10.10
2022-09-27T08:14:47.885Z,10.10
2022-09-27T08:17:18.481Z,9.90
2022-09-27T08:19:50.130Z,9.70
2022-09-27T08:22:21.259Z,9.70
2022-09-27T08:24:50.537Z,9.70
2022-09-27T08:27:18.958Z,9.80
2022-09-27T08:29:47.861Z,10.00
2022-09-27T08:32:22.823Z,10.10
2022-09-27T08:34:51.763Z,10.30
2022-09-27T08:37:20.631Z,10.30
2022-09-27T08:39:49.231Z,10.40
2022-09-27T08:42:27.933Z,10.40
2022-09-27T08:45:03.994Z,10.50
2022-09-27T08:47:38.287Z,10.40
2022-09-27T08:50:20.781Z,10.50
2022-09-27T08:52:53.622Z,10.50
2022-09-27T08:55:31.588Z,10.50
2022-09-27T08:58:01.043Z,10.70
2022-09-27T09:00:30.985Z,11.30
2022-09-27T09:03:03.937Z,11.40
2022-09-27T09:05:38.075Z,11.60
2022-09-27T09:08:25.026Z,11.80
2022-09-27T09:11:16.076Z,11.90
2022-09-27T09:14:09.195Z,11.80
2022-09-27T09:16:52.607Z,11.70
2022-09-27T09:19:43.974Z,11.40
2022-09-27T09:22:29.029Z,11.40
2022-09-27T09:25:19.376Z,11.60
2022-09-27T09:28:02.563Z,11.70
2022-09-27T09:30:42.026Z,11.80
2022-09-27T09:33:23.098Z,11.50
2022-09-27T09:35:58.813Z,11.50
2022-09-27T09:38:38.652Z,11.40
2022-09-27T09:41:13.324Z,11.30
2022-09-27T09:43:48.817Z,11.60
2022-09-27T09:46:22.859Z,11.70
2022-09-27T09:48:58.682Z,11.80
2022-09-27T09:51:35.142Z,11.90
2022-09-27T09:54:07.960Z,11.90
2022-09-27T09:56:41.832Z,12.00
2022-09-27T09:59:16.777Z,11.90
2022-09-27T10:01:48.130Z,12.10
2022-09-27T10:04:23.983Z,12.40
2022-09-27T10:06:54.887Z,12.80
2022-09-27T10:09:26.347Z,12.80
2022-09-27T10:11:55.473Z,12.60
2022-09-27T10:14:24.079Z,12.90
2022-09-27T10:16:57.158Z,12.80
2022-09-27T10:19:31.116Z,12.80
2022-09-27T10:22:04.528Z,13.00
2022-09-27T10:24:57.391Z,13.10
2022-09-27T10:27:27.403Z,12.80
2022-09-27T10:30:01.041Z,12.70
2022-09-27T10:32:33.167Z,12.60
2022-09-27T10:35:24.221Z,12.40
2022-09-27T10:37:54.450Z,12.20
2022-09-27T10:40:30.985Z,11.90
2022-09-27T10:42:59.595Z,11.80
2022-09-27T10:45:31.469Z,11.70
2022-09-27T10:48:01.845Z,11.20
2022-09-27T10:50:50.634Z,11.10
2022-09-27T10:53:23.211Z,11.10
2022-09-27T10:55:53.429Z,11.10
2022-09-27T10:58:27.901Z,11.10
2022-09-27T11:01:01.383Z,11.10
2022-09-27T11:03:31.838Z,10.90
2022-09-27T11:06:00.639Z,11.00
2022-09-27T11:08:35.356Z,11.10
2022-09-27T11:11:17.550Z,11.10
2022-09-27T11:13:59.975Z,11.20
2022-09-27T11:16:43.115Z,11.10
2022-09-27T11:19:25.019Z,11.20
2022-09-27T11:22:01.274Z,11.30
2022-09-27T11:24:58.646Z,11.70
2022-09-27T11:27:40.432Z,11.80
2022-09-27T11:30:12.907Z,11.80
2022-09-27T11:33:06.043Z,11.60
2022-09-27T11:35:58.190Z,11.50
2022-09-27T11:38:52.138Z,11.10
2022-09-27T11:41:33.646Z,11.10
2022-09-27T11:44:26.932Z,11.60
2022-09-27T11:47:06.045Z,12.30
2022-09-27T11:49:55.034Z,12.80
2022-09-27T11:52:35.097Z,13.10
2022-09-27T11:55:16.673Z,13.30
2022-09-27T11:57:54.405Z,13.50
2022-09-27T12:00:24.866Z,13.60
2022-09-27T12:03:37.227Z,13.70
2022-09-27T12:06:11.935Z,14.20
2022-09-27T12:09:03.027Z,14.70
2022-09-27T12:11:37.330Z,14.90
2022-09-27T12:14:11.308Z,15.30
2022-09-27T12:16:42.078Z,15.20
2022-09-27T12:19:19.390Z,14.40
2022-09-27T12:21:48.334Z,14.20
2022-09-27T12:24:22.127Z,13.80
2022-09-27T12:26:53.151Z,13.30
2022-09-27T12:29:27.259Z,13.20
2022-09-27T12:32:03.202Z,13.20
2022-09-27T12:34:39.003Z,13.20
2022-09-27T12:37:16.922Z,13.00
2022-09-27T12:39:53.029Z,13.00
2022-09-27T12:42:25.483Z,13.30
2022-09-27T12:44:55.433Z,13.30
2022-09-27T12:47:45.114Z,13.10
2022-09-27T12:50:23.879Z,13.30
2022-09-27T12:52:57.399Z,13.30
2022-09-27T12:55:50.094Z,13.30
2022-09-27T12:58:41.547Z,13.30
2022-09-27T13:01:31.740Z,13.20
2022-09-27T13:04:15.530Z,12.90
2022-09-27T13:07:00.741Z,12.70
2022-09-27T13:09:56.623Z,12.50
2022-09-27T13:12:27.689Z,12.30
2022-09-27T13:15:02.067Z,12.10
2022-09-27T13:17:54.410Z,12.20
2022-09-27T13:20:46.422Z,12.30
2022-09-27T13:23:50.776Z,12.80
2022-09-27T13:26:48.749Z,12.80
2022-09-27T13:29:33.211Z,12.70
2022-09-27T13:32:20.669Z,12.60
2022-09-27T13:34:53.914Z,12.60
2022-09-27T13:37:59.678Z,12.50
2022-09-27T13:40:33.883Z,12.30
2022-09-27T13:43:37.912Z,12.10
2022-09-27T13:46:17.777Z,12.50
2022-09-27T13:48:53.195Z,12.40
2022-09-27T13:51:44.380Z,12.50
2022-09-27T13:54:39.144Z,12.40
2022-09-27T13:57:42.551Z,12.30
2022-09-27T14:00:16.671Z,12.30
2022-09-27T14:02:56.800Z,12.10
2022-09-27T14:05:31.146Z,11.90
2022-09-27T14:08:03.662Z,11.80
2022-09-27T14:10:33.037Z,11.80
2022-09-27T14:13:05.650Z,11.80
2022-09-27T14:15:35.081Z,11.50
2022-09-27T14:18:03.553Z,11.50
2022-09-27T14:20:38.824Z,11.30
2022-09-27T14:23:17.399Z,11.30
2022-09-27T14:25:49.582Z,11.40
2022-09-27T14:28:23.832Z,11.40
2022-09-27T14:31:07.163Z,11.40
2022-09-27T14:33:36.976Z,11.40
2022-09-27T14:36:26.649Z,11.40
2022-09-27T14:38:58.939Z,11.30
2022-09-27T14:41:28.301Z,11.30
2022-09-27T14:43:57.222Z,11.30
2022-09-27T14:46:28.594Z,11.40
2022-09-27T14:49:01.253Z,11.30
2022-09-27T14:51:31.688Z,11.30
2022-09-27T14:54:05.518Z,11.30
2022-09-27T14:56:37.753Z,11.30
2022-09-27T14:59:12.093Z,11.40
2022-09-27T15:01:42.580Z,11.60
2022-09-27T15:04:16.459Z,11.50
2022-09-27T15:06:46.178Z,11.40
2022-09-27T15:09:17.565Z,11.30
2022-09-27T15:11:49.546Z,11.30
2022-09-27T15:14:20.548Z,11.30
2022-09-27T15:16:51.715Z,11.30
2022-09-27T15:19:25.785Z,11.40
2022-09-27T15:21:54.905Z,11.10
2022-09-27T15:24:42.110Z,11.00
2022-09-27T15:27:18.891Z,11.00
2022-09-27T15:29:51.425Z,10.80
2022-09-27T15:32:23.653Z,10.80
2022-09-27T15:34:52.729Z,10.70
2022-09-27T15:37:30.308Z,10.70
2022-09-27T15:40:30.286Z,10.70
2022-09-27T15:43:01.004Z,10.50
2022-09-27T15:45:30.538Z,10.40
2022-09-27T15:48:12.455Z,10.50
2022-09-27T15:50:41.309Z,10.50
2022-09-27T15:53:11.053Z,10.40
2022-09-27T15:55:45.246Z,10.30
2022-09-27T15:58:17.005Z,10.30
2022-09-27T16:00:55.676Z,10.30
2022-09-27T16:03:25.290Z,10.30
2022-09-27T16:05:55.516Z,10.20
2022-09-27T16:08:23.906Z,10.10
2022-09-27T16:10:55.847Z,10.10
2022-09-27T16:13:31.847Z,10.10
2022-09-27T16:16:03.702Z,10.10
2022-09-27T16:18:34.309Z,10.10
2022-09-27T16:21:03.621Z,10.00
2022-09-27T16:23:38.696Z,10.00
2022-09-27T16:26:09.643Z,10.00
2022-09-27T16:28:39.040Z,9.90
2022-09-27T16:31:10.246Z,10.00
2022-09-27T16:33:39.128Z,9.90
2022-09-27T16:36:14.622Z,9.90
2022-09-27T16:38:43.566Z,9.90
2022-09-27T16:41:14.919Z,10.00
2022-09-27T16:43:45.235Z,10.00
2022-09-27T16:46:16.329Z,9.70
2022-09-27T16:48:46.245Z,9.60
2022-09-27T16:51:35.697Z,9.60
2022-09-27T16:54:07.199Z,9.70
2022-09-27T16:56:38.390Z,9.80
2022-09-27T16:59:09.047Z,9.80
2022-09-27T17:01:38.903Z,9.80
2022-09-27T17:04:08.646Z,9.90
2022-09-27T17:06:37.742Z,9.90
2022-09-27T17:09:06.439Z,10.00
2022-09-27T17:11:36.940Z,10.20
2022-09-27T17:14:05.854Z,10.10
2022-09-27T17:16:34.732Z,10.00
2022-09-27T17:19:03.500Z,9.90
2022-09-27T17:21:37.832Z,9.80
2022-09-27T17:24:08.097Z,9.80
2022-09-27T17:26:38.536Z,9.70
2022-09-27T17:29:08.536Z,9.70
2022-09-27T17:31:42.318Z,9.50
2022-09-27T17:34:14.472Z,9.40
2022-09-27T17:36:48.148Z,9.30
2022-09-27T17:39:18.515Z,9.20
2022-09-27T17:41:49.409Z,9.20
2022-09-27T17:44:19.363Z,9.10
2022-09-27T17:47:08.705Z,9.10
2022-09-27T17:50:03.007Z,8.90
2022-09-27T17:52:33.544Z,8.90
2022-09-27T17:55:02.060Z,8.80
2022-09-27T17:57:31.903Z,8.70
2022-09-27T18:00:00.191Z,8.70
2022-09-27T18:02:28.579Z,8.60
2022-09-27T18:04:56.913Z,8.60
2022-09-27T18:07:25.349Z,8.60
2022-09-27T18:09:53.674Z,8.60
2022-09-27T18:12:22.348Z,8.60
2022-09-27T18:14:52.088Z,8.50
2022-09-27T18:17:20.340Z,8.60
2022-09-27T18:19:48.599Z,8.60
2022-09-27T18:22:17.227Z,8.50
2022-09-27T18:24:45.494Z,8.50
2022-09-27T18:27:18.154Z,8.50
2022-09-27T18:29:46.571Z,8.60
2022-09-27T18:32:16.235Z,8.50
2022-09-27T18:34:44.426Z,8.50
2022-09-27T18:37:12.616Z,8.30
2022-09-27T18:39:44.396Z,8.30
2022-09-27T18:42:12.726Z,8.20
2022-09-27T18:44:41.457Z,8.20
2022-09-27T18:47:09.766Z,8.20
2022-09-27T18:49:39.359Z,8.20
2022-09-27T18:52:07.694Z,8.20
2022-09-27T18:54:36.097Z,8.20
2022-09-27T18:57:04.375Z,8.10
2022-09-27T18:59:34.314Z,8.10
2022-09-27T19:02:02.620Z,8.10
2022-09-27T19:04:31.004Z,8.10
2022-09-27T19:07:00.700Z,8.00
2022-09-27T19:09:28.941Z,8.00
2022-09-27T19:11:57.242Z,8.00
2022-09-27T19:14:26.052Z,8.00
2022-09-27T19:16:54.539Z,8.00
2022-09-27T19:19:24.206Z,8.00
2022-09-27T19:21:53.012Z,8.00
2022-09-27T19:24:22.586Z,8.00
2022-09-27T19:26:53.611Z,8.00
2022-09-27T19:29:22.407Z,8.00
2022-09-27T19:31:51.291Z,7.90
2022-09-27T19:34:20.270Z,7.90
2022-09-27T19:36:48.606Z,7.90
2022-09-27T19:39:16.906Z,7.90
2022-09-27T19:41:47.671Z,7.70
2022-09-27T19:44:16.960Z,7.80
2022-09-27T19:46:45.841Z,7.90
2022-09-27T19:49:14.485Z,7.80
2022-09-27T19:51:43.735Z,7.90
2022-09-27T19:54:12.906Z,7.90
2022-09-27T19:56:41.180Z,7.90
2022-09-27T19:59:12.626Z,7.90
2022-09-27T20:01:42.058Z,7.90
2022-09-27T20:04:12.887Z,7.90
2022-09-27T20:06:41.412Z,7.90
2022-09-27T20:09:10.843Z,7.90
2022-09-27T20:11:39.477Z,7.90
2022-09-27T20:14:08.226Z,7.90
2022-09-27T20:16:41.213Z,7.90
2022-09-27T20:19:10.696Z,7.90
2022-09-27T20:21:58.958Z,7.90
2022-09-27T20:24:28.298Z,7.90
2022-09-27T20:26:56.955Z,7.90
2022-09-27T20:29:25.468Z,7.70
2022-09-27T20:32:22.888Z,7.70
2022-09-27T20:34:44.424Z,7.70
2022-09-27T20:37:12.798Z,7.70
2022-09-27T20:39:41.731Z,7.70
2022-09-27T20:42:10.707Z,7.70
2022-09-27T20:44:39.541Z,7.70
2022-09-27T20:47:09.512Z,7.60
2022-09-27T20:49:37.971Z,7.60
2022-09-27T20:52:06.323Z,7.60
2022-09-27T20:54:34.964Z,7.60
2022-09-27T20:57:03.633Z,7.60
2022-09-27T20:59:33.412Z,7.60
2022-09-27T21:02:02.055Z,7.50
2022-09-27T21:04:32.004Z,7.50
2022-09-27T21:07:02.067Z,7.60
2022-09-27T21:09:30.221Z,7.60
2022-09-27T21:11:58.587Z,7.60
2022-09-27T21:14:26.902Z,7.60
2022-09-27T21:16:57.993Z,7.50
2022-09-27T21:23:20.860Z,7.40
2022-09-27T21:25:51.327Z,7.40
2022-09-27T21:28:19.604Z,7.50
2022-09-27T21:30:47.852Z,7.30
2022-09-27T21:33:16.447Z,7.30
2022-09-27T21:35:51.018Z,7.20
2022-09-27T21:38:19.561Z,7.20
2022-09-27T21:40:55.535Z,7.20
2022-09-27T21:43:27.521Z,7.20
2022-09-27T21:46:01.672Z,7.20
2022-09-27T21:48:31.805Z,7.10
2022-09-27T21:51:06.582Z,7.10
2022-09-27T21:53:35.881Z,7.10
2022-09-27T21:56:05.316Z,7.10
2022-09-27T21:58:38.256Z,7.10
2022-09-27T22:01:11.132Z,7.20
2022-09-27T22:03:40.386Z,7.10
2022-09-27T22:06:13.449Z,7.10
2022-09-27T22:08:42.385Z,7.10
2022-09-27T22:11:14.282Z,7.10
2022-09-27T22:13:42.676Z,7.10
2022-09-27T22:16:16.422Z,7.00
2022-09-27T22:18:45.718Z,7.10
2022-09-27T22:21:17.747Z,7.20
2022-09-27T22:23:46.460Z,7.10
2022-09-27T22:26:16.858Z,7.10
2022-09-27T22:28:46.874Z,7.10
2022-09-27T22:31:18.544Z,7.10
2022-09-27T22:33:50.226Z,7.20
2022-09-27T22:36:20.254Z,7.20
2022-09-27T22:38:49.389Z,7.10
2022-09-27T22:41:17.878Z,7.20
2022-09-27T22:43:46.577Z,7.20
2022-09-27T22:46:15.136Z,7.30
2022-09-27T22:48:44.003Z,7.40
2022-09-27T22:51:13.364Z,7.30
2022-09-27T22:53:44.180Z,7.30
2022-09-27T22:56:15.329Z,7.20
2022-09-27T22:58:44.256Z,7.20
2022-09-27T23:01:16.118Z,7.10
2022-09-27T23:03:45.709Z,7.20
2022-09-27T23:06:15.634Z,7.20
2022-09-27T23:08:45.376Z,7.10
2022-09-27T23:11:17.677Z,7.20
2022-09-27T23:13:48.050Z,7.20
2022-09-27T23:16:18.569Z,7.20
2022-09-27T23:18:48.255Z,7.10
2022-09-27T23:21:17.193Z,7.20
2022-09-27T23:23:49.195Z,7.10
2022-09-27T23:26:18.457Z,7.10
2022-09-27T23:28:46.731Z,7.10
2022-09-27T23:31:18.768Z,7.10
2022-09-27T23:33:49.049Z,7.10
2022-09-27T23:36:18.611Z,7.10
2022-09-27T23:38:50.322Z,7.00
2022-09-27T23:41:19.500Z,7.00
2022-09-27T23:43:48.415Z,7.00
2022-09-27T23:46:18.522Z,7.00
2022-09-27T23:48:47.906Z,7.10
2022-09-27T23:51:16.131Z,7.10
2022-09-27T23:53:44.576Z,7.00
2022-09-27T23:56:18.101Z,7.00
2022-09-27T23:58:47.500Z,7.10
